Terminal Aerodrome Forecast
Issued by NWS Charleston, WV

Current Version | Previous Version | Graphics & Text | Print | Product List | Glossary On
Versions: 1 2 3 4 5 6 7 8 9 10 11 12 13 14 15 16 17 18 19 20 21 22 23 24 25
000
FTUS41 KRLX 221123
TAFBKW
TAF
KBKW 221123Z 2212/2312 15008KT P6SM OVC090
     FM230200 16014G26KT 6SM -SHRA OVC060
     FM230400 16015G28KT 5SM -SHRA OVC045
     FM230500 17015G28KT 3SM -SHRA OVC040 WS006/18025KT
     FM230900 22013G24KT 6SM -SHRA OVC009
     FM231100 23012G23KT 6SM -SHRA BKN013=

USA.gov is the U.S. government's official web portal to all federal, state and local government web resources and services.